Huvudsida
METAR-TAF:

METAR-TAF

Flygplatser :

Catania-Fontanarossas flygplats

Catania, Italien

latitud: 37-28N, longitud: 015-03E, höjd: 11 m

Aktuellt väderrapport

Denna rapport gjordes för 42 minuter sedan, klockan 02:50 UTC
Vind 1 kt varierande vindriktning
Temperatur 19°C
Fuktighet 94%
Tryck 1012 hPa
Sikt 10 km eller mer
Inga moln under 1 500 m eller inga cumulonimbus

METAR: LICC 200250Z VRB01KT CAVOK 19/18 Q1012

Tid: 05:32 (03:32 UTC)

Väderprognos

Denna rapport gjordes för 4 timmar och 32 minuter sedan, klockan 23:00 UTC
Prognos gäller från 20 kl. 00 UTC till 20 kl. 24 UTC
Vind 6 kt från väst/sydväst
Sikt 10 km eller mer
Inga moln under 1 500 m eller inga cumulonimbus
Blir
från 20 kl. 08 UTC till 20 kl. 10 UTC
Vind 12 kt från ost
Blir
från 20 kl. 17 UTC till 20 kl. 19 UTC
Vind 5 kt varierande vindriktning

TAF: LICC 192300Z 2000/2024 25006KT CAVOK BECMG 2008/2010 08012KT BECMG 2017/2019 VRB05KT

Aktuella väderrapporter och prognoser från 4000 flygplatser (METAR- och TAF-rapporter).

De tillgängliga stationerna syns som gula och röda prickar på kartan.

För musen över prickarna för att se namnen på stationerna.

Klicka sedan för att få väderrapporter och prognoser.

För att ändra kartan: Klicka på de gröna knapparna med ett svart kors på för att zooma in; den gröna knappen med ett streck på för att zooma ut; eller på de gröna pilarna för angränsande kartor.


METAR-TAF: